Lady Debora — V2QG7 — position and weather

sailwx.info

Track history (hours):
 
Tides and Currents Weather Stations Pressure Air Temp Water Temp Dewpoint Dewpoint Depression Visibility Wind Speed Wind Dir Waves Ship Positions

Lady Debora

Last reported at 2016-Jul-27 03:19 UTC. Time now 2016-Jul-28 20:16 UTC.
Position N 37°15' E 024°08'.

Length 107 m; draft 4 m.

Type: Cargo ship. MMSI: 304010760.

Date/timePositionNaut miles runAvg speedWind from/ knotsBaromVisibWave heightAir tempDewpointWater temp
2016-Jul-27 03:19N 37°15' E 024°08'8 8.9
2016-Jul-27 02:28N 37°10' E 024°01'8 8.5
2016-Jul-27 01:33N 37°05' E 023°54'9 8.7
2016-Jul-27 00:33N 36°58' E 023°47'9 9.5
2016-Jul-26 23:33N 36°51' E 023°39'10 9.5
2016-Jul-26 22:28N 36°43' E 023°31'408 9.7
2016-Jul-25 04:26N 36°20' E 015°04'9 9.7
2016-Jul-25 03:33N 36°22' E 014°53'10 9.8
2016-Jul-25 02:33N 36°25' E 014°42'10 9.8
2016-Jul-25 01:33N 36°28' E 014°30'11 9.7
2016-Jul-25 00:28N 36°31' E 014°17'1110.5
2016-Jul-24 23:23N 36°35' E 014°04'910.6
2016-Jul-24 22:33N 36°37' E 013°54'1410.3
2016-Jul-24 21:10N 36°41' E 013°37'610.3
2016-Jul-24 20:33N 36°44' E 013°29'1110.7
2016-Jul-24 19:33N 36°47' E 013°17'1110.4
2016-Jul-24 18:30N 36°51' E 013°04'910.1
2016-Jul-24 17:33N 36°54' E 012°52'1210.4
2016-Jul-24 16:23N 36°58' E 012°38'810.2
2016-Jul-24 15:33N 36°60' E 012°28'1010.1
2016-Jul-24 14:33N 37°03' E 012°16'14 9.7
2016-Jul-24 13:09N 37°07' E 011°60'  
Track history (hours):
 
Tides and Currents Weather Stations Pressure Air Temp Water Temp Dewpoint Dewpoint Depression Visibility Wind Speed Wind Dir Waves Ship Positions

Lady Debora

Last reported at 2016-Jul-27 03:19 UTC. Time now 2016-Jul-28 20:16 UTC.
Position N 37°15' E 024°08'.

Length 107 m; draft 4 m.

Type: Cargo ship. MMSI: 304010760.

Date/timePositionNaut miles runAvg speedWind from/ knotsBaromVisibWave heightAir tempDewpointWater temp
2016-Jul-27 03:19N 37°15' E 024°08'8 8.9
2016-Jul-27 02:28N 37°10' E 024°01'8 8.5
2016-Jul-27 01:33N 37°05' E 023°54'9 8.7
2016-Jul-27 00:33N 36°58' E 023°47'9 9.5
2016-Jul-26 23:33N 36°51' E 023°39'10 9.5
2016-Jul-26 22:28N 36°43' E 023°31'408 9.7
2016-Jul-25 04:26N 36°20' E 015°04'9 9.7
2016-Jul-25 03:33N 36°22' E 014°53'10 9.8
2016-Jul-25 02:33N 36°25' E 014°42'10 9.8
2016-Jul-25 01:33N 36°28' E 014°30'11 9.7
2016-Jul-25 00:28N 36°31' E 014°17'1110.5
2016-Jul-24 23:23N 36°35' E 014°04'910.6
2016-Jul-24 22:33N 36°37' E 013°54'1410.3
2016-Jul-24 21:10N 36°41' E 013°37'610.3
2016-Jul-24 20:33N 36°44' E 013°29'1110.7
2016-Jul-24 19:33N 36°47' E 013°17'1110.4
2016-Jul-24 18:30N 36°51' E 013°04'910.1
2016-Jul-24 17:33N 36°54' E 012°52'1210.4
2016-Jul-24 16:23N 36°58' E 012°38'810.2
2016-Jul-24 15:33N 36°60' E 012°28'1010.1
2016-Jul-24 14:33N 37°03' E 012°16'14 9.7
2016-Jul-24 13:09N 37°07' E 011°60'  

Dump ship's entire track history